ESMK/KID METAR and TAF weather

Enter ICAO airport designator
Station Type Date Time Source
ESMK METAR 2019/08/19 07:50 UTC NOAA

ESMK 190750Z 21009KT 9999 SCT018 18/15 Q1010


Station Type Date Time Source
ESMK Decoded METAR 2019/08/19 07:50 UTC NOAA

Station name not available
Aug 19, 2019 - 03:50 AM EDT / 2019.08.19 0750 UTC
Wind: from the SSW (210 degrees) at 10 MPH (9 KT):0
Visibility: greater than 7 mile(s):0
Sky conditions: partly cloudy
Temperature: 64 F (18 C)
Dew Point: 59 F (15 C)
Relative Humidity: 82%
Pressure (altimeter): 29.83 in. Hg (1010 hPa)
ob: ESMK 190750Z 21009KT 9999 SCT018 18/15 Q1010
cycle: 8

Station Type Date Time Source
ESMK TAF 2015/03/18 12:33 UTC NOAA

TAF ESMK 181130Z 1812/1824 13012KT CAVOK

Example: see airport list